Time;durP1;ratioP1;P1;durP2;ratioP2;P2;SDS_P1;SDS_P2;PMS_P1;PMS_P2;Temp;Humidity;BMP_temperature;BMP_pressure;BME280_temperature;BME280_humidity;BME280_pressure;Samples;Min_cycle;Max_cycle;Signal;HPM_P1;HPM_P2
2023/12/09 00:01:48;;;;;;;;;2.67;2.33;;;;;9.22;87.65;101037.09;5056876;28;70420;-55
2023/12/09 00:04:13;;;;;;;;;2.33;1.00;;;;;9.20;87.56;101030.97;5056063;28;74394;-55
2023/12/09 00:06:46;;;;;;;;;3.67;2.33;;;;;9.18;87.81;101022.22;5056769;28;67535;-55
2023/12/09 00:09:12;;;;;;;;;2.00;2.00;;;;;9.18;87.88;101027.53;5057148;28;45406;-56
2023/12/09 00:11:38;;;;;;;;;4.00;2.33;;;;;9.17;87.68;101021.31;5057939;28;45629;-55
2023/12/09 00:14:03;;;;;;;;;4.00;3.00;;;;;9.14;88.04;101021.47;5055903;28;75579;-55
2023/12/09 00:16:29;;;;;;;;;4.00;2.00;;;;;9.11;88.63;101018.91;5060291;28;45359;-55
2023/12/09 00:18:55;;;;;;;;;5.67;4.00;;;;;9.06;88.53;101013.81;5060819;28;45426;-55
2023/12/09 00:21:20;;;;;;;;;3.00;3.00;;;;;9.05;88.31;101020.03;5060309;28;68569;-55
2023/12/09 00:23:45;;;;;;;;;2.00;2.00;;;;;9.01;88.70;101026.41;5060142;28;75544;-55
2023/12/09 00:26:11;;;;;;;;;4.00;2.33;;;;;8.99;89.54;101022.94;5060797;28;45452;-55
2023/12/09 00:28:36;;;;;;;;;4.67;2.67;;;;;8.95;89.33;101026.63;5060840;28;45409;-55
2023/12/09 00:31:01;;;;;;;;;4.33;3.00;;;;;8.93;89.13;101023.19;5059694;28;67370;-56
2023/12/09 00:33:26;;;;;;;;;3.00;3.00;;;;;8.94;88.86;101032.84;5092507;27;75618;-55
2023/12/09 00:35:52;;;;;;;;;5.33;3.00;;;;;8.92;88.50;101034.72;5059783;28;72215;-56
2023/12/09 00:38:17;;;;;;;;;3.67;3.00;;;;;8.92;88.75;101038.22;5060753;28;59643;-53
2023/12/09 00:40:42;;;;;;;;;4.67;3.00;;;;;8.92;88.82;101030.28;5060751;28;48359;-55
2023/12/09 00:43:08;;;;;;;;;3.33;2.00;;;;;8.92;88.95;101034.72;5060516;28;46302;-55
2023/12/09 00:45:33;;;;;;;;;7.00;7.00;;;;;8.93;88.75;101034.66;5059747;28;73331;-55
2023/12/09 00:47:59;;;;;;;;;6.00;5.00;;;;;8.92;88.83;101038.22;5061515;28;69272;-53
2023/12/09 00:50:25;;;;;;;;;7.00;2.00;;;;;8.90;89.12;101039.22;5061412;28;45473;-54
2023/12/09 00:52:50;;;;;;;;;8.00;1.33;;;;;8.89;89.21;101048.09;5060280;28;47930;-55
2023/12/09 00:55:15;;;;;;;;;3.00;3.00;;;;;8.88;89.11;101038.44;5059385;28;72009;-55
2023/12/09 00:57:41;;;;;;;;;5.00;2.33;;;;;8.88;89.24;101046.38;5060174;28;66808;-54
2023/12/09 01:00:06;;;;;;;;;4.33;4.00;;;;;8.87;89.00;101034.03;5057951;28;45611;-55
2023/12/09 01:02:32;;;;;;;;;4.33;3.67;;;;;8.84;88.93;101029.72;5060165;28;47078;-55
2023/12/09 01:04:57;;;;;;;;;3.00;2.33;;;;;8.84;89.26;101037.69;5060437;28;45312;-55
2023/12/09 01:07:23;;;;;;;;;7.00;3.67;;;;;8.82;89.69;101023.59;5092034;27;69286;-55
2023/12/09 01:09:48;;;;;;;;;3.33;2.33;;;;;8.81;89.78;101021.00;5061148;28;45563;-55
2023/12/09 01:12:13;;;;;;;;;4.00;2.67;;;;;8.77;89.24;101021.13;5058544;28;73694;-55
2023/12/09 01:14:39;;;;;;;;;3.33;3.00;;;;;8.73;90.14;101022.16;5059152;28;72386;-55
2023/12/09 01:17:04;;;;;;;;;4.67;2.00;;;;;8.71;89.94;101025.81;5059890;28;64731;-55
2023/12/09 01:19:29;;;;;;;;;3.00;2.67;;;;;8.65;90.40;101028.69;5062803;28;45502;-54
2023/12/09 01:21:55;;;;;;;;;2.00;2.00;;;;;8.61;89.72;101027.94;5059408;28;73324;-54
2023/12/09 01:24:20;;;;;;;;;2.67;2.00;;;;;8.57;90.80;101027.19;5059362;28;71785;-55
2023/12/09 01:26:45;;;;;;;;;4.67;3.00;;;;;8.50;91.09;101025.72;5057889;28;68275;-55
2023/12/09 01:29:11;;;;;;;;;6.00;3.33;;;;;8.44;91.27;101024.09;5058299;28;68642;-55
2023/12/09 01:31:36;;;;;;;;;4.33;3.33;;;;;8.40;91.86;101022.50;5059012;28;72300;-55
2023/12/09 01:34:01;;;;;;;;;2.67;2.67;;;;;8.38;91.49;101015.53;5058904;28;72491;-55
2023/12/09 01:36:27;;;;;;;;;3.67;2.67;;;;;8.35;92.04;101010.34;5060137;28;45752;-56
2023/12/09 01:38:52;;;;;;;;;4.00;3.00;;;;;8.34;91.37;101011.25;5059006;28;70392;-54
2023/12/09 01:41:17;;;;;;;;;3.67;3.00;;;;;8.34;91.46;101005.97;5059773;28;46082;-55
2023/12/09 01:43:48;;;;;;;;;3.00;3.00;;;;;8.33;92.17;101006.88;5059976;28;45443;-55
2023/12/09 01:46:13;;;;;;;;;3.33;2.67;;;;;8.32;91.98;101008.69;5059404;28;45395;-55
2023/12/09 01:48:39;;;;;;;;;1.00;0.00;;;;;8.30;92.52;100999.91;5092144;27;70677;-54
2023/12/09 01:51:04;;;;;;;;;4.33;3.33;;;;;8.29;92.98;100998.16;5059005;28;49952;-55
2023/12/09 01:53:30;;;;;;;;;3.33;2.00;;;;;8.28;92.54;100999.13;5092448;27;46686;-54
2023/12/09 01:55:57;;;;;;;;;4.00;3.00;;;;;8.29;92.69;101000.81;5059178;28;45493;-55
2023/12/09 01:58:23;;;;;;;;;4.67;3.00;;;;;8.27;93.23;101002.69;5092464;27;45473;-55
2023/12/09 02:00:48;;;;;;;;;5.00;3.00;;;;;8.27;92.82;100992.94;5058154;28;73741;-54
2023/12/09 02:03:14;;;;;;;;;2.67;2.67;;;;;8.26;93.52;100987.69;5057759;28;72875;-54
2023/12/09 02:05:41;;;;;;;;;3.33;3.00;;;;;8.28;92.63;100992.00;5059499;28;45454;-54
2023/12/09 02:08:07;;;;;;;;;4.00;4.00;;;;;8.33;93.13;100985.69;5058843;28;45525;-53
2023/12/09 02:10:32;;;;;;;;;2.00;2.00;;;;;8.39;92.69;100972.19;5075145;28;45652;-55
2023/12/09 02:13:16;;;;;;;;;2.00;2.00;;;;;8.41;92.86;100957.97;5058008;28;73272;-55
2023/12/09 02:15:47;;;;;;;;;5.00;3.00;;;;;8.47;92.72;100956.03;5057875;28;45476;-54
2023/12/09 02:18:12;;;;;;;;;3.00;2.00;;;;;8.50;91.93;100956.78;5091957;27;45511;-55
2023/12/09 02:20:38;;;;;;;;;3.67;3.67;;;;;8.49;92.20;100952.41;5090826;27;75410;-56
2023/12/09 02:23:11;;;;;;;;;3.00;3.00;;;;;8.49;92.43;100954.19;5058147;28;72097;-55
2023/12/09 02:25:41;;;;;;;;;4.00;4.00;;;;;8.49;92.87;100948.91;5056744;28;45367;-53
2023/12/09 02:28:15;;;;;;;;;3.33;3.00;;;;;8.47;93.10;100951.56;5058668;28;45490;-55
2023/12/09 02:30:47;;;;;;;;;3.33;3.33;;;;;8.42;93.78;100927.88;5058774;28;45438;-54
2023/12/09 02:33:14;;;;;;;;;5.00;3.00;;;;;8.40;93.80;100916.47;5090621;27;45444;-55
2023/12/09 02:35:43;;;;;;;;;3.67;3.67;;;;;8.41;93.77;100914.69;5019096;28;45463;-55
2023/12/09 02:38:09;;;;;;;;;6.00;4.33;;;;;8.41;93.58;100907.59;5020017;28;45566;-55
2023/12/09 02:40:35;;;;;;;;;5.00;4.00;;;;;8.42;93.73;100922.59;5020158;28;59425;-55
2023/12/09 02:43:01;;;;;;;;;5.33;3.67;;;;;8.41;94.09;100914.69;5020348;28;45505;-54
2023/12/09 02:45:26;;;;;;;;;4.00;4.00;;;;;8.40;94.13;100902.34;5038009;28;69128;-55
2023/12/09 02:47:52;;;;;;;;;2.00;2.00;;;;;8.41;94.38;100901.44;5019408;28;69260;-55
2023/12/09 02:50:17;;;;;;;;;6.33;3.67;;;;;8.41;94.21;100904.94;5037860;28;75573;-55
2023/12/09 02:52:42;;;;;;;;;7.00;3.67;;;;;8.42;93.75;100909.31;5017877;28;63951;-54
2023/12/09 02:55:08;;;;;;;;;2.00;2.00;;;;;8.48;93.52;100902.09;5036867;28;69348;-55
2023/12/09 02:57:33;;;;;;;;;2.00;2.00;;;;;8.52;92.83;100901.03;5020448;28;45514;-55
2023/12/09 02:59:59;;;;;;;;;6.00;4.00;;;;;8.54;93.01;100891.22;5034038;28;63708;-55
2023/12/09 03:02:24;;;;;;;;;4.00;4.00;;;;;8.52;93.50;100888.63;5038536;28;46099;-54
2023/12/09 03:04:50;;;;;;;;;4.33;4.33;;;;;8.58;93.04;100880.44;5019686;28;68025;-55
2023/12/09 03:07:20;;;;;;;;;3.33;3.00;;;;;8.58;93.65;100876.94;5037951;28;45543;-57
2023/12/09 03:09:45;;;;;;;;;3.00;3.00;;;;;8.60;93.28;100867.13;5019377;28;45630;-54
2023/12/09 03:12:10;;;;;;;;;8.00;5.00;;;;;8.62;93.64;100854.66;5037466;28;46681;-55
2023/12/09 03:14:36;;;;;;;;;5.67;5.00;;;;;8.63;93.59;100845.81;5038069;28;45565;-54
2023/12/09 03:17:01;;;;;;;;;3.00;3.00;;;;;8.61;93.69;100844.97;5036813;28;68972;-55
2023/12/09 03:19:26;;;;;;;;;4.00;3.00;;;;;8.60;93.93;100835.28;5018233;28;70053;-55
2023/12/09 03:21:52;;;;;;;;;4.33;3.33;;;;;8.61;93.85;100831.72;5020070;28;51073;-55
2023/12/09 03:24:17;;;;;;;;;6.00;5.00;;;;;8.61;93.35;100835.22;5038464;28;45559;-55
2023/12/09 03:26:43;;;;;;;;;6.00;4.67;;;;;8.61;94.06;100821.13;5019501;28;70355;-53
2023/12/09 03:29:08;;;;;;;;;5.67;3.00;;;;;8.60;94.29;100820.28;5036312;28;75709;-55
2023/12/09 03:31:33;;;;;;;;;4.00;4.00;;;;;8.61;94.10;100810.50;5037312;28;72488;-55
2023/12/09 03:33:59;;;;;;;;;6.33;5.00;;;;;8.57;94.26;100815.06;5030331;28;64405;-55
2023/12/09 03:36:24;;;;;;;;;5.33;3.00;;;;;8.60;94.30;100814.97;5057402;28;67095;-54
2023/12/09 03:38:49;;;;;;;;;6.00;4.00;;;;;8.61;94.50;100810.50;5055689;28;75573;-55
2023/12/09 03:41:15;;;;;;;;;7.33;4.33;;;;;8.61;94.66;100818.47;5056418;28;73339;-55
2023/12/09 03:43:40;;;;;;;;;7.00;5.00;;;;;8.62;94.23;100812.25;5058404;28;45466;-55
2023/12/09 03:46:05;;;;;;;;;4.33;4.00;;;;;8.61;94.60;100784.84;5058094;28;45386;-55
2023/12/09 03:48:31;;;;;;;;;5.67;4.00;;;;;8.60;94.49;100787.56;5056648;28;47302;-54
2023/12/09 03:50:56;;;;;;;;;2.67;2.67;;;;;8.58;95.52;100779.69;5059194;28;45279;-55
2023/12/09 03:53:22;;;;;;;;;4.33;3.00;;;;;8.58;94.79;100774.38;5077240;27;45490;-55
2023/12/09 03:55:50;;;;;;;;;7.00;4.00;;;;;8.60;95.05;100776.97;5061658;28;45402;-55
2023/12/09 03:58:15;;;;;;;;;4.33;3.67;;;;;8.63;94.73;100781.28;5065129;28;45383;-55
2023/12/09 04:00:41;;;;;;;;;8.67;5.67;;;;;8.66;94.94;100773.22;5059538;28;45611;-55
2023/12/09 04:03:06;;;;;;;;;6.00;3.33;;;;;8.66;94.90;100773.22;5060616;28;68931;-55
2023/12/09 04:05:31;;;;;;;;;13.00;4.00;;;;;8.64;94.79;100760.00;5060722;28;69566;-55
2023/12/09 04:07:57;;;;;;;;;11.67;5.00;;;;;8.66;94.75;100749.34;5058867;28;66939;-54
2023/12/09 04:10:22;;;;;;;;;1.00;1.00;;;;;8.65;94.45;100748.47;5060880;28;67967;-55
2023/12/09 04:12:47;;;;;;;;;5.67;5.67;;;;;8.66;95.28;100744.91;5061415;28;45345;-54
2023/12/09 04:15:13;;;;;;;;;6.00;5.00;;;;;8.65;94.86;100737.00;5061299;28;45275;-54
2023/12/09 04:17:38;;;;;;;;;6.00;5.00;;;;;8.67;95.16;100738.66;5060475;28;72080;-54
2023/12/09 04:20:07;;;;;;;;;8.33;7.00;;;;;8.67;95.03;100736.03;5060248;28;72207;-55
2023/12/09 04:22:32;;;;;;;;;9.00;5.00;;;;;8.66;95.34;100738.75;5048379;28;45343;-55
2023/12/09 04:24:58;;;;;;;;;3.33;3.33;;;;;8.65;95.23;100732.56;5058663;28;69451;-55
2023/12/09 04:27:23;;;;;;;;;11.33;4.67;;;;;8.66;95.04;100739.59;5057637;28;47796;-54
2023/12/09 04:29:49;;;;;;;;;5.00;5.00;;;;;8.67;94.82;100740.44;5059498;28;71830;-54
2023/12/09 04:32:14;;;;;;;;;7.00;5.00;;;;;8.68;95.17;100736.88;5060330;28;45752;-54
2023/12/09 04:34:39;;;;;;;;;7.00;4.00;;;;;8.71;94.59;100734.94;5060380;28;61676;-55
2023/12/09 04:37:05;;;;;;;;;8.00;4.00;;;;;8.75;94.94;100728.59;5060170;28;45312;-54
2023/12/09 04:39:30;;;;;;;;;4.67;3.00;;;;;8.79;94.46;100731.97;5060151;28;73145;-55
2023/12/09 04:41:55;;;;;;;;;4.00;4.00;;;;;8.85;94.11;100728.19;5060592;28;45402;-54
2023/12/09 04:44:23;;;;;;;;;4.33;3.33;;;;;8.90;94.15;100718.22;5061128;28;45541;-55
2023/12/09 04:46:48;;;;;;;;;4.67;3.33;;;;;8.92;93.89;100719.03;5060548;28;45493;-54
2023/12/09 04:49:13;;;;;;;;;3.00;2.67;;;;;8.92;93.98;100703.97;5060628;28;45382;-55
2023/12/09 04:51:39;;;;;;;;;4.00;3.00;;;;;8.95;93.70;100700.31;5059918;28;63175;-55
2023/12/09 04:54:04;;;;;;;;;7.67;5.67;;;;;8.98;93.97;100702.81;5060451;28;45481;-55
2023/12/09 04:56:30;;;;;;;;;8.00;4.00;;;;;9.00;93.70;100697.47;5059739;28;71677;-54
2023/12/09 04:58:55;;;;;;;;;3.67;2.00;;;;;9.03;93.25;100700.81;5059596;28;60928;-54
2023/12/09 05:01:21;;;;;;;;;2.67;2.67;;;;;9.05;93.67;100691.00;5060326;28;45465;-55
2023/12/09 05:03:47;;;;;;;;;5.00;5.00;;;;;9.09;93.39;100691.75;5061037;28;45489;-55
2023/12/09 05:06:12;;;;;;;;;4.00;2.67;;;;;9.08;93.69;100682.91;5059851;28;45329;-55
2023/12/09 05:08:39;;;;;;;;;4.67;4.67;;;;;9.04;94.34;100676.00;5059570;28;45414;-55
2023/12/09 05:11:04;;;;;;;;;2.33;2.33;;;;;9.05;94.56;100661.81;5060803;28;45574;-55
2023/12/09 05:13:29;;;;;;;;;4.00;4.00;;;;;9.06;94.52;100673.28;5059818;28;65415;-54
2023/12/09 05:15:55;;;;;;;;;2.00;1.00;;;;;9.04;94.68;100652.13;5058524;28;75413;-53
2023/12/09 05:18:20;;;;;;;;;4.00;1.00;;;;;9.02;95.32;100650.47;5060364;28;45390;-54
2023/12/09 05:20:45;;;;;;;;;1.00;1.00;;;;;8.99;95.90;100646.19;5060412;28;45330;-54
2023/12/09 05:23:11;;;;;;;;;3.67;2.00;;;;;9.01;95.11;100639.03;5060184;28;45452;-54
2023/12/09 05:25:36;;;;;;;;;1.33;1.33;;;;;9.02;95.77;100640.75;5060226;28;46178;-54
2023/12/09 05:28:02;;;;;;;;;4.00;2.00;;;;;9.01;96.71;100630.19;5059608;28;45564;-54
2023/12/09 05:30:28;;;;;;;;;8.00;2.67;;;;;9.01;96.85;100623.09;5060419;28;45400;-53
2023/12/09 05:32:53;;;;;;;;;3.00;1.67;;;;;9.01;97.01;100619.56;5059451;28;45399;-55
2023/12/09 05:35:18;;;;;;;;;2.00;0.00;;;;;9.02;96.87;100595.66;5058979;28;74841;-55
2023/12/09 05:37:44;;;;;;;;;3.00;1.00;;;;;9.04;96.94;100600.88;5059887;28;45480;-54
2023/12/09 05:40:09;;;;;;;;;3.00;2.67;;;;;9.02;97.56;100608.03;5057557;28;68228;-55
2023/12/09 05:42:35;;;;;;;;;2.67;2.67;;;;;9.00;98.10;100589.53;5059918;28;45327;-55
2023/12/09 05:45:00;;;;;;;;;3.33;1.67;;;;;9.03;97.56;100583.22;5059031;28;59115;-55
2023/12/09 05:47:25;;;;;;;;;3.67;1.67;;;;;9.01;98.31;100585.09;5056559;28;45378;-54
2023/12/09 05:49:51;;;;;;;;;3.00;2.00;;;;;8.99;98.45;100579.00;5059215;28;64620;-54
2023/12/09 05:52:17;;;;;;;;;0.00;0.00;;;;;9.01;99.32;100579.78;5059877;28;45703;-54
2023/12/09 05:54:43;;;;;;;;;2.33;2.00;;;;;8.99;99.44;100571.91;5056166;28;75618;-54
2023/12/09 05:57:08;;;;;;;;;2.00;2.00;;;;;8.98;100.00;100564.88;5052847;28;45330;-54
2023/12/09 05:59:33;;;;;;;;;7.67;3.33;;;;;9.00;99.90;100560.34;5051970;28;69140;-54
2023/12/09 06:01:59;;;;;;;;;1.00;1.00;;;;;8.97;99.90;100555.22;5053645;28;59498;-54
2023/12/09 06:04:24;;;;;;;;;4.00;2.67;;;;;8.96;100.00;100549.94;5054356;28;45486;-55
2023/12/09 06:06:49;;;;;;;;;2.67;1.00;;;;;8.96;100.00;100553.47;5053631;28;73086;-55
2023/12/09 06:09:14;;;;;;;;;4.67;4.00;;;;;8.97;99.88;100539.28;5053691;28;53658;-54
2023/12/09 06:11:40;;;;;;;;;5.00;2.67;;;;;8.99;100.00;100540.06;5054024;28;48006;-55
2023/12/09 06:14:06;;;;;;;;;5.00;2.00;;;;;9.02;100.00;100536.41;5052028;28;75957;-54
2023/12/09 06:16:32;;;;;;;;;3.33;3.33;;;;;9.05;100.00;100528.31;5054971;28;45762;-55
2023/12/09 06:18:57;;;;;;;;;5.00;3.00;;;;;9.08;100.00;100520.19;5054138;28;45285;-54
2023/12/09 06:21:24;;;;;;;;;1.33;1.33;;;;;9.07;100.00;100522.00;5054426;28;45522;-55
2023/12/09 06:23:50;;;;;;;;;4.00;2.00;;;;;9.09;100.00;100511.31;5052204;28;45552;-54
2023/12/09 06:26:15;;;;;;;;;1.33;1.33;;;;;9.09;99.74;100501.53;5053059;28;45719;-54
2023/12/09 06:28:40;;;;;;;;;3.00;1.00;;;;;9.11;99.96;100498.81;5058621;28;46907;-55
2023/12/09 06:31:06;;;;;;;;;4.33;2.00;;;;;9.14;100.00;100482.75;5057101;27;70273;-52
2023/12/09 06:33:31;;;;;;;;;2.67;2.67;;;;;9.15;99.94;100480.94;5034911;28;74667;-54
2023/12/09 06:35:56;;;;;;;;;3.00;3.00;;;;;9.18;99.78;100486.97;5053180;28;73182;-53
2023/12/09 06:38:22;;;;;;;;;2.00;2.00;;;;;9.21;100.00;100480.66;5053859;28;67420;-53
2023/12/09 06:40:47;;;;;;;;;2.33;2.00;;;;;9.23;99.95;100479.66;5054510;28;45321;-55
2023/12/09 06:43:12;;;;;;;;;4.00;2.00;;;;;9.20;100.00;100469.16;5049168;28;74956;-55
2023/12/09 06:45:38;;;;;;;;;2.00;2.00;;;;;9.18;100.00;100454.28;5053284;28;58842;-54
2023/12/09 06:48:03;;;;;;;;;2.00;2.00;;;;;9.16;100.00;100443.72;5052210;28;45418;-55
2023/12/09 06:50:29;;;;;;;;;1.00;1.00;;;;;9.16;100.00;100438.41;5036804;28;46225;-55
2023/12/09 06:52:54;;;;;;;;;1.00;1.00;;;;;9.16;100.00;100441.06;5051541;28;75200;-54
2023/12/09 06:55:19;;;;;;;;;5.67;5.67;;;;;9.17;100.00;100440.13;5054394;28;47522;-54
2023/12/09 06:57:45;;;;;;;;;3.00;2.00;;;;;9.18;100.00;100447.16;5053446;28;45538;-54
2023/12/09 07:00:12;;;;;;;;;5.33;2.00;;;;;9.16;100.00;100433.09;5052128;28;58631;-55
2023/12/09 07:02:38;;;;;;;;;2.33;2.00;;;;;9.09;100.00;100427.25;5061316;28;46915;-54
2023/12/09 07:05:04;;;;;;;;;10.33;7.67;;;;;9.04;100.00;100413.34;5053030;28;45571;-54
2023/12/09 07:07:29;;;;;;;;;1.67;1.67;;;;;8.99;100.00;100415.38;5052768;28;45366;-57
2023/12/09 07:09:56;;;;;;;;;2.00;1.00;;;;;8.94;100.00;100418.28;5086715;27;45386;-55
2023/12/09 07:12:21;;;;;;;;;1.00;1.00;;;;;8.89;100.00;100407.03;5053721;28;45517;-55
2023/12/09 07:14:47;;;;;;;;;1.00;1.00;;;;;8.87;100.00;100395.63;5085304;27;45363;-54
2023/12/09 07:17:12;;;;;;;;;2.00;1.00;;;;;8.84;100.00;100393.13;5052274;28;68416;-53
2023/12/09 07:19:37;;;;;;;;;2.00;1.00;;;;;8.77;100.00;100370.47;5059197;28;69241;-54
2023/12/09 07:22:03;;;;;;;;;1.00;1.00;;;;;8.75;100.00;100370.56;5051243;28;74563;-54
2023/12/09 07:24:28;;;;;;;;;2.67;1.33;;;;;8.75;100.00;100375.03;5052945;28;45386;-54
2023/12/09 07:26:54;;;;;;;;;2.00;2.00;;;;;8.73;100.00;100371.56;5052804;28;46045;-54
2023/12/09 07:29:19;;;;;;;;;1.33;1.33;;;;;8.72;100.00;100370.72;5052250;28;52366;-54
2023/12/09 07:31:45;;;;;;;;;1.00;1.00;;;;;8.75;100.00;100372.38;5053126;28;45627;-55
2023/12/09 07:34:16;;;;;;;;;3.67;3.67;;;;;8.74;100.00;100375.94;5084697;27;67668;-55
2023/12/09 07:36:41;;;;;;;;;2.00;2.00;;;;;8.66;100.00;100389.56;5053524;28;45458;-55
2023/12/09 07:39:08;;;;;;;;;1.67;1.67;;;;;8.66;100.00;100373.66;5053179;28;45452;-54
2023/12/09 07:41:34;;;;;;;;;4.67;1.00;;;;;8.60;100.00;100356.28;5050285;28;46306;-53
2023/12/09 07:43:59;;;;;;;;;2.00;2.00;;;;;8.59;100.00;100340.41;5051848;28;45509;-54
2023/12/09 07:46:25;;;;;;;;;2.00;1.00;;;;;8.59;100.00;100332.47;5084851;27;69218;-54
2023/12/09 07:48:50;;;;;;;;;2.00;2.00;;;;;8.60;100.00;100321.81;5047791;28;68712;-51
2023/12/09 07:51:15;;;;;;;;;2.67;1.00;;;;;8.63;100.00;100315.50;5050999;28;70312;-54
2023/12/09 07:53:41;;;;;;;;;2.00;2.00;;;;;8.65;100.00;100316.28;5053651;28;45670;-53
2023/12/09 07:56:06;;;;;;;;;1.67;1.67;;;;;8.64;100.00;100306.59;5051618;28;69413;-54
2023/12/09 07:58:32;;;;;;;;;1.67;1.67;;;;;8.65;100.00;100303.00;5052680;28;45690;-53
2023/12/09 08:01:00;;;;;;;;;5.67;5.00;;;;;8.60;100.00;100276.75;5050284;28;67464;-54
2023/12/09 08:03:25;;;;;;;;;1.00;1.00;;;;;8.59;100.00;100259.13;5053176;28;45458;-53
2023/12/09 08:05:51;;;;;;;;;2.33;1.33;;;;;8.59;100.00;100251.16;5053062;28;51510;-53
2023/12/09 08:08:16;;;;;;;;;2.00;2.00;;;;;8.61;100.00;100267.00;5051219;28;45515;-53
2023/12/09 08:10:42;;;;;;;;;1.00;1.00;;;;;8.60;100.00;100254.66;5050476;28;71621;-53
2023/12/09 08:13:08;;;;;;;;;1.00;1.00;;;;;8.59;100.00;100219.34;5051313;28;45560;-53
2023/12/09 08:15:34;;;;;;;;;1.00;1.00;;;;;8.59;100.00;100235.25;5044477;28;45628;-52
2023/12/09 08:17:59;;;;;;;;;0.00;0.00;;;;;8.55;100.00;100209.84;5051305;28;48971;-51
2023/12/09 08:20:24;;;;;;;;;1.00;1.00;;;;;8.58;100.00;100208.81;5052251;28;47785;-50
2023/12/09 08:22:50;;;;;;;;;4.00;1.00;;;;;8.61;100.00;100204.22;5052386;28;45485;-52
2023/12/09 08:25:15;;;;;;;;;1.00;1.00;;;;;8.62;100.00;100183.88;5054686;28;45858;-53
2023/12/09 08:27:41;;;;;;;;;1.00;1.00;;;;;8.61;100.00;100150.34;5053242;28;45703;-52
2023/12/09 08:30:10;;;;;;;;;2.67;1.00;;;;;8.56;100.00;100142.59;5055619;28;45513;-52
2023/12/09 08:32:37;;;;;;;;;1.00;1.00;;;;;8.57;100.00;100139.03;5058185;28;46636;-52
2023/12/09 08:35:02;;;;;;;;;1.00;1.00;;;;;8.58;100.00;100138.09;5038819;28;45750;-52
2023/12/09 08:37:27;;;;;;;;;3.00;0.33;;;;;8.57;100.00;100106.38;5058815;28;45575;-52
2023/12/09 08:39:54;;;;;;;;;1.33;0.00;;;;;8.56;100.00;100096.69;5059263;28;74931;-51
2023/12/09 08:42:20;;;;;;;;;1.00;1.00;;;;;8.55;100.00;100111.75;5059382;28;45276;-51
2023/12/09 08:44:45;;;;;;;;;0.00;0.00;;;;;8.52;100.00;100111.06;5060311;28;45498;-49
2023/12/09 08:47:11;;;;;;;;;2.33;1.00;;;;;8.54;100.00;100082.66;5059271;28;70406;-49
2023/12/09 08:49:36;;;;;;;;;0.00;0.00;;;;;8.52;100.00;100079.25;5059979;28;68055;-52
2023/12/09 08:52:01;;;;;;;;;1.33;1.00;;;;;8.50;100.00;100067.84;5059412;28;67087;-49
2023/12/09 08:54:26;;;;;;;;;0.00;0.00;;;;;8.49;100.00;100027.25;5059717;28;66910;-49
2023/12/09 08:56:52;;;;;;;;;0.00;0.00;;;;;8.47;100.00;100033.56;5062187;28;45850;-51
2023/12/09 08:59:17;;;;;;;;;0.33;0.33;;;;;8.46;100.00;100027.44;5066030;27;74569;-54
2023/12/09 09:01:42;;;;;;;;;0.00;0.00;;;;;8.46;100.00;100010.66;5060822;28;73289;-49
2023/12/09 09:04:08;;;;;;;;;3.67;1.00;;;;;8.47;100.00;100013.22;5060111;28;46850;-49
2023/12/09 09:06:33;;;;;;;;;1.67;0.67;;;;;8.48;100.00;99971.69;5061424;28;45417;-49
2023/12/09 09:08:58;;;;;;;;;1.00;0.00;;;;;8.51;100.00;99985.59;5059844;28;56569;-51
2023/12/09 09:11:24;;;;;;;;;2.67;1.00;;;;;8.50;100.00;100030.75;5059238;28;73328;-50
2023/12/09 09:13:49;;;;;;;;;0.67;0.00;;;;;8.47;100.00;100013.22;5060187;28;45618;-48
2023/12/09 09:16:15;;;;;;;;;0.33;0.00;;;;;8.43;100.00;100014.28;5059660;28;45402;-49
2023/12/09 09:18:40;;;;;;;;;0.00;0.00;;;;;8.42;100.00;100008.16;5060004;28;45626;-50
2023/12/09 09:21:05;;;;;;;;;0.00;0.00;;;;;8.41;100.00;99997.63;5059748;28;45445;-49
2023/12/09 09:23:31;;;;;;;;;0.00;0.00;;;;;8.47;100.00;99992.00;5061066;28;45458;-48
2023/12/09 09:25:56;;;;;;;;;0.00;0.00;;;;;8.53;100.00;99975.78;5058638;28;69767;-50
2023/12/09 09:28:21;;;;;;;;;0.67;0.00;;;;;8.55;100.00;99975.69;5060305;28;75456;-47
2023/12/09 09:30:46;;;;;;;;;0.00;0.00;;;;;8.57;100.00;99995.03;5056422;28;68894;-48
2023/12/09 09:33:12;;;;;;;;;1.00;1.00;;;;;8.59;100.00;99998.44;5058486;28;67155;-51
2023/12/09 09:35:37;;;;;;;;;0.33;0.33;;;;;8.60;100.00;99997.50;5060012;28;45393;-48
2023/12/09 09:38:02;;;;;;;;;0.00;0.00;;;;;8.61;100.00;99972.72;5059412;28;46179;-48
2023/12/09 09:40:28;;;;;;;;;1.00;0.00;;;;;8.63;100.00;99967.31;5058859;28;73507;-48
2023/12/09 09:42:56;;;;;;;;;0.00;0.00;;;;;8.66;100.00;99977.78;5058143;28;46342;-48
2023/12/09 09:45:23;;;;;;;;;0.00;0.00;;;;;8.71;100.00;99973.09;5068165;28;45757;-48
2023/12/09 09:47:49;;;;;;;;;1.00;1.00;;;;;8.71;100.00;99952.72;5061899;28;46216;-49
2023/12/09 09:50:21;;;;;;;;;0.00;0.00;;;;;8.75;100.00;99934.84;5059941;28;45398;-51
2023/12/09 09:52:46;;;;;;;;;0.00;0.00;;;;;8.74;100.00;99944.56;5060830;28;45836;-47
2023/12/09 09:55:14;;;;;;;;;0.00;0.00;;;;;8.81;100.00;99933.63;5070048;28;45439;-50
2023/12/09 09:57:42;;;;;;;;;0.00;0.00;;;;;8.82;100.00;99938.00;5058243;28;45533;-49
2023/12/09 10:00:13;;;;;;;;;1.00;0.00;;;;;8.86;100.00;99939.53;5057887;28;45500;-50
2023/12/09 10:02:41;;;;;;;;;0.00;0.00;;;;;8.91;100.00;99918.91;5059232;28;45507;-55
2023/12/09 10:05:08;;;;;;;;;2.33;1.00;;;;;8.93;100.00;99912.56;5059686;28;45369;-48
2023/12/09 10:07:34;;;;;;;;;0.00;0.00;;;;;8.94;100.00;99914.28;5059437;28;45665;-49
2023/12/09 10:09:59;;;;;;;;;0.00;0.00;;;;;8.96;100.00;99924.81;5086727;27;67563;-50
2023/12/09 10:12:26;;;;;;;;;0.00;0.00;;;;;8.99;100.00;99921.13;5058655;28;68289;-50
2023/12/09 10:14:51;;;;;;;;;0.00;0.00;;;;;9.04;100.00;99908.44;5055478;28;45473;-47
2023/12/09 10:17:17;;;;;;;;;1.00;0.00;;;;;9.06;100.00;99894.16;5056219;28;74250;-48
2023/12/09 10:19:42;;;;;;;;;0.00;0.00;;;;;9.09;100.00;99887.81;5057974;28;73018;-50
2023/12/09 10:22:07;;;;;;;;;0.00;0.00;;;;;9.07;100.00;99885.25;5055131;28;68225;-51
2023/12/09 10:24:33;;;;;;;;;0.00;0.00;;;;;9.10;100.00;99890.38;5056381;28;51767;-53
2023/12/09 10:26:58;;;;;;;;;0.00;0.00;;;;;9.14;100.00;99883.09;5061091;28;70533;-52
2023/12/09 10:29:24;;;;;;;;;0.00;0.00;;;;;9.12;100.00;99853.13;5063493;28;45563;-52
2023/12/09 10:31:50;;;;;;;;;1.00;0.00;;;;;9.18;100.00;99828.06;5041303;28;45680;-52
2023/12/09 10:34:16;;;;;;;;;0.00;0.00;;;;;9.21;100.00;99847.28;5057938;28;45611;-52
2023/12/09 10:36:41;;;;;;;;;0.00;0.00;;;;;9.29;100.00;99853.94;5058334;28;64927;-53
2023/12/09 10:39:08;;;;;;;;;0.00;0.00;;;;;9.37;100.00;99860.50;5058039;28;45596;-51
2023/12/09 10:41:34;;;;;;;;;0.00;0.00;;;;;9.46;100.00;99863.56;5060445;28;45342;-50
2023/12/09 10:44:00;;;;;;;;;0.00;0.00;;;;;9.47;100.00;99863.44;5058205;28;45433;-50
2023/12/09 10:46:26;;;;;;;;;0.67;0.00;;;;;9.53;100.00;99825.94;5062824;28;45750;-51
2023/12/09 10:48:51;;;;;;;;;0.00;0.00;;;;;9.55;100.00;99820.53;5053390;28;60648;-53
2023/12/09 10:51:18;;;;;;;;;0.00;0.00;;;;;9.61;100.00;99830.78;5056627;28;45515;-48
2023/12/09 10:53:44;;;;;;;;;0.00;0.00;;;;;9.68;100.00;99848.00;5056080;28;45560;-50
2023/12/09 10:56:10;;;;;;;;;0.00;0.00;;;;;9.72;100.00;99819.47;5052449;28;47332;-52
2023/12/09 10:58:36;;;;;;;;;0.00;0.00;;;;;9.71;100.00;99805.34;5057509;28;45478;-55
2023/12/09 11:01:02;;;;;;;;;0.00;0.00;;;;;9.75;100.00;99811.31;5059610;28;45368;-54
2023/12/09 11:03:28;;;;;;;;;1.00;0.00;;;;;9.75;100.00;99811.31;5060099;28;45483;-55
2023/12/09 11:05:56;;;;;;;;;2.00;1.00;;;;;9.85;100.00;99801.81;5057503;28;46198;-57
2023/12/09 11:08:23;;;;;;;;;0.00;0.00;;;;;9.88;100.00;99796.34;5059279;28;45726;-57
2023/12/09 11:10:50;;;;;;;;;0.00;0.00;;;;;9.94;100.00;99757.88;5056315;28;45533;-57
2023/12/09 11:13:17;;;;;;;;;0.00;0.00;;;;;9.92;100.00;99754.47;5055542;28;70687;-58
2023/12/09 11:15:43;;;;;;;;;0.00;0.00;;;;;10.02;100.00;99776.00;5057491;28;45533;-58
2023/12/09 11:18:10;;;;;;;;;0.00;0.00;;;;;10.06;100.00;99761.56;5056682;28;63349;-58
2023/12/09 11:20:41;;;;;;;;;0.00;0.00;;;;;10.08;100.00;99704.72;5057945;28;45300;-57
2023/12/09 11:23:11;;;;;;;;;0.00;0.00;;;;;10.13;100.00;99731.00;5056235;28;45651;-58
2023/12/09 11:25:43;;;;;;;;;0.00;0.00;;;;;10.15;100.00;99728.22;5056330;28;46276;-57